createdAt,value
2024-02-23T00:02:26.074Z,97863.84
2024-02-23T00:04:53.951Z,97841.19
2024-02-23T00:07:21.803Z,97880.06
2024-02-23T00:09:49.470Z,97893.16
2024-02-23T00:12:17.365Z,97893.00
2024-02-23T00:14:45.182Z,97897.97
2024-02-23T00:17:14.495Z,97909.50
2024-02-23T00:19:42.318Z,97918.38
2024-02-23T00:22:10.135Z,97918.78
2024-02-23T00:24:38.379Z,97918.19
2024-02-23T00:27:06.484Z,97937.59
2024-02-23T00:29:34.234Z,97939.88
2024-02-23T00:32:02.008Z,97948.88
2024-02-23T00:34:33.277Z,97965.75
2024-02-23T00:37:01.048Z,97947.34
2024-02-23T00:39:28.717Z,97963.22
2024-02-23T00:41:56.396Z,97961.81
2024-02-23T00:44:24.144Z,97964.91
2024-02-23T00:46:52.084Z,97977.00
2024-02-23T00:49:19.918Z,97978.81
2024-02-23T00:51:48.936Z,97992.06
2024-02-23T00:54:16.581Z,98005.28
2024-02-23T00:56:50.531Z,98000.91
2024-02-23T00:59:19.964Z,97994.59
2024-02-23T01:01:47.841Z,98015.97
2024-02-23T01:04:15.512Z,98016.94
2024-02-23T01:06:43.392Z,98010.47
2024-02-23T01:09:12.459Z,98008.94
2024-02-23T01:11:40.322Z,98011.03
2024-02-23T01:14:08.889Z,98018.50
2024-02-23T01:16:36.660Z,98025.09
2024-02-23T01:19:04.434Z,98027.47
2024-02-23T01:21:32.155Z,97964.31
2024-02-23T01:24:02.129Z,98037.19
2024-02-23T01:26:31.209Z,98022.97
2024-02-23T01:28:58.960Z,98036.34
2024-02-23T01:31:26.921Z,98055.44
2024-02-23T01:33:54.749Z,98043.91
2024-02-23T01:36:22.521Z,98047.75
2024-02-23T01:38:50.243Z,98035.63
2024-02-23T01:41:17.901Z,98062.22
2024-02-23T01:43:46.943Z,98052.91
2024-02-23T01:46:17.809Z,98057.28
2024-02-23T01:48:45.589Z,98065.28
2024-02-23T01:51:13.892Z,98077.41
2024-02-23T01:53:41.797Z,98070.81
2024-02-23T01:56:10.581Z,98072.78
2024-02-23T01:58:40.013Z,98066.31
2024-02-23T02:01:09.061Z,98070.41
2024-02-23T02:03:37.647Z,98070.25
2024-02-23T02:06:06.291Z,98067.00
2024-02-23T02:08:35.618Z,98074.63
2024-02-23T02:11:03.402Z,98074.88
2024-02-23T02:13:31.347Z,98080.50
2024-02-23T02:16:00.595Z,98072.09
2024-02-23T02:18:30.153Z,98071.22
2024-02-23T02:20:58.934Z,98055.44
2024-02-23T02:23:27.779Z,98068.56
2024-02-23T02:25:55.933Z,98075.59
2024-02-23T02:28:24.100Z,98089.69
2024-02-23T02:30:52.049Z,98083.47
2024-02-23T02:33:19.830Z,98087.84
2024-02-23T02:35:49.391Z,98102.59
2024-02-23T02:38:17.111Z,98096.56
2024-02-23T02:40:44.938Z,98100.50
2024-02-23T02:43:12.805Z,98101.22
2024-02-23T02:45:40.445Z,98106.69
2024-02-23T02:48:09.388Z,98109.63
2024-02-23T02:50:37.296Z,98116.97
2024-02-23T02:53:06.452Z,98128.66
2024-02-23T02:55:34.120Z,98130.75
2024-02-23T02:58:01.786Z,98141.28
2024-02-23T03:00:29.660Z,98147.88
2024-02-23T03:02:57.383Z,98135.78
2024-02-23T03:05:25.192Z,98150.25
2024-02-23T03:07:52.933Z,98139.44
2024-02-23T03:10:22.080Z,98163.75
2024-02-23T03:12:49.739Z,98140.94
2024-02-23T03:15:17.440Z,98146.59
2024-02-23T03:17:45.210Z,98153.59
2024-02-23T03:20:13.954Z,98140.28
2024-02-23T03:22:41.661Z,98155.84
2024-02-23T03:25:10.868Z,98163.41
2024-02-23T03:27:39.994Z,98153.44
2024-02-23T03:30:09.672Z,98158.19
2024-02-23T03:32:39.051Z,98161.13
2024-02-23T03:35:09.252Z,98165.38
2024-02-23T03:37:36.963Z,98166.59
2024-02-23T03:40:06.006Z,98168.56
2024-02-23T03:42:33.783Z,98164.91
2024-02-23T03:45:03.398Z,98170.00
2024-02-23T03:47:31.225Z,98181.13
2024-02-23T03:49:59.497Z,98180.16
2024-02-23T03:52:27.751Z,98176.38
2024-02-23T03:54:55.969Z,98176.38
2024-02-23T03:57:23.617Z,98178.91
2024-02-23T03:59:54.587Z,98184.25
2024-02-23T04:02:23.936Z,98132.66
2024-02-23T04:04:51.808Z,98182.56
2024-02-23T04:07:19.714Z,98192.97
2024-02-23T04:09:53.218Z,98187.34
2024-02-23T04:12:21.217Z,98187.34
2024-02-23T04:14:49.211Z,98189.88
2024-02-23T04:17:18.086Z,98190.47
2024-02-23T04:19:47.129Z,98189.88
2024-02-23T04:22:14.845Z,98185.97
2024-02-23T04:24:44.493Z,98206.63
2024-02-23T04:27:12.176Z,98207.88
2024-02-23T04:29:39.919Z,98201.16
2024-02-23T04:32:08.249Z,98209.31
2024-02-23T04:34:37.022Z,98211.94
2024-02-23T04:37:06.328Z,98211.84
2024-02-23T04:39:34.212Z,98198.88
2024-02-23T04:42:02.064Z,98214.91
2024-02-23T04:44:29.753Z,98220.00
2024-02-23T04:46:57.473Z,98219.72
2024-02-23T04:49:25.427Z,98224.75
2024-02-23T04:51:53.838Z,98221.09
2024-02-23T04:54:22.873Z,98223.38
2024-02-23T04:56:51.484Z,98216.78
2024-02-23T04:59:19.150Z,98209.81
2024-02-23T05:01:47.233Z,98237.44
2024-02-23T05:04:14.974Z,98241.69
2024-02-23T05:06:44.544Z,98231.84
2024-02-23T05:09:12.597Z,98240.72
2024-02-23T05:11:41.767Z,98241.94
2024-02-23T05:14:09.510Z,98256.03
2024-02-23T05:16:38.379Z,98249.13
2024-02-23T05:19:06.101Z,98249.25
2024-02-23T05:21:34.824Z,98249.97
2024-02-23T05:24:02.522Z,98237.19
2024-02-23T05:26:30.524Z,98234.50
2024-02-23T05:28:59.641Z,98235.50
2024-02-23T05:31:47.475Z,98245.59
2024-02-23T05:34:15.376Z,98239.28
2024-02-23T05:36:43.101Z,98231.97
2024-02-23T05:39:11.846Z,98239.00
2024-02-23T05:41:39.603Z,98237.06
2024-02-23T05:44:08.777Z,98223.25
2024-02-23T05:46:37.376Z,98232.09
2024-02-23T05:49:06.081Z,98231.00
2024-02-23T05:51:34.932Z,98223.63
2024-02-23T05:54:02.900Z,98228.72
2024-02-23T05:56:30.818Z,98223.50
2024-02-23T05:58:58.622Z,98226.75
2024-02-23T06:01:27.664Z,98214.78
2024-02-23T06:03:56.174Z,98218.72
2024-02-23T06:06:24.234Z,98235.78
2024-02-23T06:08:52.201Z,98214.16
2024-02-23T06:11:20.110Z,98216.00
2024-02-23T06:13:47.842Z,98206.69
2024-02-23T06:16:15.614Z,98206.94
2024-02-23T06:18:45.067Z,98206.09
2024-02-23T06:21:16.499Z,98204.53
2024-02-23T06:23:44.485Z,98218.06
2024-02-23T06:26:12.665Z,98213.25
2024-02-23T06:28:43.044Z,98220.97
2024-02-23T06:31:11.835Z,98208.22
2024-02-23T06:33:39.746Z,98215.13
2024-02-23T06:36:09.790Z,98206.41
2024-02-23T06:38:37.586Z,98220.03
2024-02-23T06:41:05.630Z,98218.06
2024-02-23T06:43:33.523Z,98210.06
2024-02-23T06:46:05.749Z,98212.00
2024-02-23T06:48:33.559Z,98225.13
2024-02-23T06:51:01.306Z,98202.03
2024-02-23T06:53:30.544Z,98221.59
2024-02-23T06:56:00.087Z,98213.44
2024-02-23T06:58:27.876Z,98182.94
2024-02-23T07:00:55.630Z,98218.06
2024-02-23T07:03:23.587Z,98219.31
2024-02-23T07:05:51.607Z,98232.16
2024-02-23T07:08:19.521Z,98221.97
2024-02-23T07:10:48.738Z,98227.53
2024-02-23T07:13:16.497Z,98224.13
2024-02-23T07:15:44.276Z,98224.91
2024-02-23T07:18:12.072Z,98224.53
2024-02-23T07:20:40.158Z,98223.28
2024-02-23T07:23:08.812Z,98228.94
2024-02-23T07:25:36.725Z,98230.22
2024-02-23T07:28:06.370Z,98223.91
2024-02-23T07:30:34.038Z,98227.28
2024-02-23T07:33:01.909Z,98231.53
2024-02-23T07:35:29.970Z,98231.25
2024-02-23T07:37:57.974Z,98258.56
2024-02-23T07:40:25.675Z,98155.47
2024-02-23T07:42:53.577Z,98220.63
2024-02-23T07:45:22.576Z,98228.22
2024-02-23T07:47:50.366Z,98235.69
2024-02-23T07:50:20.151Z,98235.84
2024-02-23T07:52:48.000Z,98230.81
2024-02-23T07:55:18.456Z,98238.72
2024-02-23T07:57:46.218Z,98238.72
2024-02-23T08:00:14.743Z,98242.38
2024-02-23T08:02:43.813Z,98247.03
2024-02-23T08:05:12.137Z,98234.91
2024-02-23T08:07:40.120Z,98250.25
2024-02-23T08:10:08.548Z,98247.72
2024-02-23T08:12:39.333Z,98247.03
2024-02-23T08:15:10.361Z,98258.13
2024-02-23T08:17:38.550Z,98257.03
2024-02-23T08:20:09.285Z,98251.38
2024-02-23T08:22:37.709Z,98251.97
2024-02-23T08:25:06.014Z,98265.66
2024-02-23T08:27:33.813Z,98262.41
2024-02-23T08:30:01.561Z,98260.31
2024-02-23T08:32:29.438Z,98271.59
2024-02-23T08:35:01.018Z,98268.34
2024-02-23T08:37:30.198Z,98272.00
2024-02-23T08:39:58.086Z,98263.56
2024-02-23T08:42:25.882Z,98264.28
2024-02-23T08:44:55.621Z,98270.66
2024-02-23T08:47:23.428Z,98262.75
2024-02-23T08:49:51.294Z,98261.94
2024-02-23T08:52:18.971Z,98274.91
2024-02-23T08:54:47.999Z,98261.28
2024-02-23T08:57:18.740Z,98257.47
2024-02-23T08:59:46.589Z,98257.16
2024-02-23T09:02:14.520Z,98269.72
2024-02-23T09:04:42.541Z,98259.72
2024-02-23T09:07:10.351Z,98145.03
2024-02-23T09:09:38.421Z,98255.91
2024-02-23T09:12:11.714Z,98266.22
2024-02-23T09:14:39.761Z,98256.22
2024-02-23T09:17:09.693Z,98262.84
2024-02-23T09:19:37.917Z,98265.09
2024-02-23T09:22:06.040Z,98272.00
2024-02-23T09:24:34.183Z,98256.91
2024-02-23T09:27:01.826Z,98264.38
2024-02-23T09:29:30.909Z,98269.88
2024-02-23T09:31:58.665Z,98265.94
2024-02-23T09:34:26.648Z,98271.13
2024-02-23T09:36:54.799Z,98275.22
2024-02-23T09:39:22.469Z,98279.63
2024-02-23T09:41:52.518Z,98273.94
2024-02-23T09:44:21.848Z,98288.19
2024-02-23T09:46:51.157Z,98275.66
2024-02-23T09:49:18.978Z,98275.38
2024-02-23T09:51:46.887Z,98278.72
2024-02-23T09:54:16.946Z,98280.16
2024-02-23T09:56:46.982Z,98281.81
2024-02-23T09:59:15.708Z,98279.13
2024-02-23T10:01:43.472Z,98292.53
2024-02-23T10:04:12.567Z,98259.66
2024-02-23T10:06:40.427Z,98282.22
2024-02-23T10:09:08.439Z,98295.72
2024-02-23T10:11:36.862Z,98281.19
2024-02-23T10:14:04.783Z,98294.72
2024-02-23T10:16:32.510Z,98286.41
2024-02-23T10:19:00.406Z,98281.41
2024-02-23T10:21:32.469Z,98280.47
2024-02-23T10:24:00.239Z,98263.78
2024-02-23T10:26:29.392Z,98249.22
2024-02-23T10:28:59.560Z,98286.47
2024-02-23T10:31:27.424Z,98246.63
2024-02-23T10:33:59.502Z,98293.91
2024-02-23T10:36:33.861Z,98261.00
2024-02-23T10:39:05.693Z,98304.84
2024-02-23T10:41:36.862Z,98308.13
2024-02-23T10:44:06.170Z,98297.78
2024-02-23T10:46:34.557Z,98301.66
2024-02-23T10:49:03.702Z,98302.59
2024-02-23T10:51:34.395Z,98309.47
2024-02-23T10:54:02.390Z,98318.91
2024-02-23T10:56:30.161Z,98322.28
2024-02-23T10:58:57.927Z,98313.25
2024-02-23T11:01:26.993Z,98285.84
2024-02-23T11:03:55.484Z,98312.09
2024-02-23T11:06:29.747Z,98299.75
2024-02-23T11:09:10.053Z,98277.25
2024-02-23T11:11:39.824Z,98310.59
2024-02-23T11:14:10.985Z,98284.75
2024-02-23T11:16:42.307Z,98293.81
2024-02-23T11:19:12.633Z,98299.81
2024-02-23T11:21:40.767Z,98289.56
2024-02-23T11:24:09.999Z,98292.75
2024-02-23T11:26:39.629Z,98273.44
2024-02-23T11:29:13.208Z,98287.00
2024-02-23T11:31:47.675Z,98291.13
2024-02-23T11:34:15.491Z,98289.78
2024-02-23T11:36:43.224Z,98294.88
2024-02-23T11:39:13.244Z,98289.38
2024-02-23T11:41:42.540Z,98300.66
2024-02-23T11:44:10.438Z,98296.88
2024-02-23T11:46:38.109Z,98306.97
2024-02-23T11:49:05.885Z,98289.53
2024-02-23T11:51:34.124Z,98283.56
2024-02-23T11:54:02.616Z,98279.41
2024-02-23T11:56:32.345Z,98307.41
2024-02-23T11:59:00.157Z,98297.47
2024-02-23T12:01:31.486Z,98303.13
2024-02-23T12:03:59.235Z,98295.44
2024-02-23T12:06:30.141Z,98302.91
2024-02-23T12:08:58.968Z,98304.59
2024-02-23T12:11:26.941Z,98303.28
2024-02-23T12:13:58.916Z,98305.31
2024-02-23T12:16:28.573Z,98297.81
2024-02-23T12:18:57.433Z,98289.06
2024-02-23T12:21:26.216Z,98296.28
2024-02-23T12:23:53.963Z,98300.34
2024-02-23T12:26:22.079Z,98318.16
2024-02-23T12:28:49.826Z,98303.47
2024-02-23T12:31:26.735Z,98307.72
2024-02-23T12:33:54.458Z,98307.13
2024-02-23T12:36:22.441Z,98317.53
2024-02-23T12:38:50.276Z,98212.22
2024-02-23T12:41:17.976Z,98319.50
2024-02-23T12:43:48.499Z,98319.78
2024-02-23T12:46:18.356Z,98315.81
2024-02-23T12:48:46.173Z,98328.69
2024-02-23T12:51:14.392Z,98319.34
2024-02-23T12:53:43.743Z,98324.56
2024-02-23T12:56:13.091Z,98297.16
2024-02-23T12:58:42.265Z,98316.25
2024-02-23T13:01:10.385Z,98319.63
2024-02-23T13:03:41.369Z,98317.00
2024-02-23T13:06:09.593Z,98316.94
2024-02-23T13:08:37.475Z,98309.19
2024-02-23T13:11:05.729Z,98314.72
2024-02-23T13:13:34.163Z,98322.88
2024-02-23T13:16:01.902Z,98321.44
2024-02-23T13:18:29.700Z,98321.31
2024-02-23T13:20:59.088Z,98282.66
2024-02-23T13:23:26.840Z,98326.88
2024-02-23T13:25:54.624Z,98329.13
2024-02-23T13:28:22.431Z,98330.94
2024-02-23T13:30:50.106Z,98331.44
2024-02-23T13:33:19.351Z,98324.38
2024-02-23T13:35:47.278Z,98319.84
2024-02-23T13:38:16.424Z,98324.44
2024-02-23T13:40:44.218Z,98328.13
2024-02-23T13:43:11.902Z,98333.50
2024-02-23T13:45:51.890Z,98327.88
2024-02-23T13:48:20.513Z,98333.00
2024-02-23T13:50:49.467Z,98326.38
2024-02-23T13:53:18.639Z,98327.63
2024-02-23T13:55:46.378Z,98333.28
2024-02-23T13:58:14.363Z,98327.22
2024-02-23T14:00:42.323Z,98331.16
2024-02-23T14:03:11.170Z,98324.66
2024-02-23T14:05:39.845Z,98330.56
2024-02-23T14:08:09.230Z,98322.91
2024-02-23T14:10:38.534Z,98320.63
2024-02-23T14:13:06.441Z,98315.97
2024-02-23T14:15:34.384Z,98319.59
2024-02-23T14:18:02.140Z,98317.94
2024-02-23T14:20:30.446Z,98321.09
2024-02-23T14:22:58.776Z,98322.19
2024-02-23T14:25:26.506Z,98323.03
2024-02-23T14:27:57.010Z,98328.81
2024-02-23T14:30:24.954Z,98336.13
2024-02-23T14:32:52.805Z,98333.66
2024-02-23T14:35:20.632Z,98341.13
2024-02-23T14:37:48.355Z,98332.06
2024-02-23T14:40:16.219Z,98338.56
2024-02-23T14:42:44.064Z,98335.38
2024-02-23T14:45:14.515Z,98333.59
2024-02-23T14:47:46.271Z,98328.78
2024-02-23T14:50:14.836Z,98341.94
2024-02-23T14:52:42.694Z,98327.94
2024-02-23T14:55:12.476Z,98336.44
2024-02-23T14:57:40.441Z,98332.34
2024-02-23T15:00:10.594Z,98336.22
2024-02-23T15:02:40.979Z,98340.25
2024-02-23T15:05:09.541Z,98334.28
2024-02-23T15:07:37.787Z,98349.56
2024-02-23T15:10:09.516Z,98345.63
2024-02-23T15:12:38.121Z,98345.53
2024-02-23T15:15:07.800Z,98348.53
2024-02-23T15:17:35.791Z,98344.63
2024-02-23T15:20:05.380Z,98344.00
2024-02-23T15:22:34.693Z,98344.69
2024-02-23T15:25:05.249Z,98353.38
2024-02-23T15:27:32.959Z,98351.84
2024-02-23T15:30:00.594Z,98357.06
2024-02-23T15:32:28.524Z,98367.16
2024-02-23T15:34:56.319Z,98363.88
2024-02-23T15:37:25.406Z,98351.50
2024-02-23T15:39:53.316Z,98350.97
2024-02-23T15:42:21.620Z,98325.41
2024-02-23T15:44:49.439Z,98351.03
2024-02-23T15:47:17.448Z,98350.25
2024-02-23T15:50:05.117Z,98354.78
2024-02-23T15:52:34.397Z,98362.41
2024-02-23T15:55:02.193Z,98367.22
2024-02-23T15:57:29.874Z,98381.50
2024-02-23T16:00:02.955Z,98374.22
2024-02-23T16:02:32.237Z,98383.13
2024-02-23T16:05:00.040Z,98374.56
2024-02-23T16:07:27.890Z,98365.44
2024-02-23T16:09:56.939Z,98371.38
2024-02-23T16:12:24.674Z,98379.84
2024-02-23T16:14:52.410Z,98362.22
2024-02-23T16:17:20.159Z,98381.66
2024-02-23T16:19:47.974Z,98387.34
2024-02-23T16:22:15.901Z,98369.97
2024-02-23T16:24:45.497Z,98378.88
2024-02-23T16:27:15.668Z,98379.69
2024-02-23T16:29:43.431Z,98380.53
2024-02-23T16:32:11.269Z,98370.19
2024-02-23T16:34:40.302Z,98381.53
2024-02-23T16:37:08.109Z,98378.84
2024-02-23T16:39:36.120Z,98380.00
2024-02-23T16:42:04.056Z,98371.38
2024-02-23T16:44:33.240Z,98396.47
2024-02-23T16:47:00.999Z,98384.47
2024-02-23T16:49:28.989Z,98374.78
2024-02-23T16:51:56.833Z,98388.28
2024-02-23T16:54:24.585Z,98383.53
2024-02-23T16:56:52.628Z,98395.78
2024-02-23T16:59:20.328Z,98394.66
2024-02-23T17:01:49.459Z,98399.03
2024-02-23T17:04:17.420Z,98403.41
2024-02-23T17:06:45.144Z,98431.47
2024-02-23T17:09:12.860Z,98428.38
2024-02-23T17:11:40.821Z,98409.19
2024-02-23T17:14:08.598Z,98410.59
2024-02-23T17:16:36.555Z,98401.53
2024-02-23T17:19:05.853Z,98418.00
2024-02-23T17:21:33.706Z,98415.88
2024-02-23T17:24:01.403Z,98425.50
2024-02-23T17:26:29.141Z,98422.28
2024-02-23T17:28:56.952Z,98406.59
2024-02-23T17:31:24.790Z,98411.09
2024-02-23T17:33:52.945Z,98423.38
2024-02-23T17:36:22.065Z,98413.78
2024-02-23T17:38:49.807Z,98416.00
2024-02-23T17:41:20.520Z,98415.03
2024-02-23T17:43:49.986Z,98426.19
2024-02-23T17:46:17.676Z,98420.13
2024-02-23T17:48:45.447Z,98422.66
2024-02-23T17:51:13.233Z,98429.72
2024-02-23T17:53:42.317Z,98428.00
2024-02-23T17:56:11.461Z,98428.84
2024-02-23T17:58:39.180Z,98425.59
2024-02-23T18:01:06.919Z,98422.66
2024-02-23T18:03:34.695Z,98422.91
2024-02-23T18:06:02.370Z,98418.69
2024-02-23T18:08:30.210Z,98426.44
2024-02-23T18:10:59.714Z,98429.53
2024-02-23T18:13:27.893Z,98425.03
2024-02-23T18:15:55.668Z,98416.13
2024-02-23T18:18:23.512Z,98428.09
2024-02-23T18:20:51.435Z,98431.31
2024-02-23T18:23:19.173Z,98451.63
2024-02-23T18:25:46.882Z,98456.44
2024-02-23T18:28:15.943Z,98456.63
2024-02-23T18:30:43.648Z,98448.28
2024-02-23T18:33:11.579Z,98458.41
2024-02-23T18:35:39.413Z,98458.13
2024-02-23T18:38:07.139Z,98450.69
2024-02-23T18:40:34.860Z,98452.06
2024-02-23T18:43:02.710Z,98448.94
2024-02-23T18:45:33.242Z,98448.44
2024-02-23T18:48:04.694Z,98431.53
2024-02-23T18:50:33.195Z,98436.78
2024-02-23T18:53:00.923Z,98432.69
2024-02-23T18:55:30.045Z,98434.66
2024-02-23T18:57:57.843Z,98427.47
2024-02-23T19:00:25.534Z,98431.13
2024-02-23T19:02:54.533Z,98439.88
2024-02-23T19:05:22.836Z,98443.09
2024-02-23T19:07:50.541Z,98443.94
2024-02-23T19:10:18.257Z,98440.72
2024-02-23T19:12:46.978Z,98437.75
2024-02-23T19:15:15.097Z,98439.22
2024-02-23T19:17:43.296Z,98438.03
2024-02-23T19:20:13.187Z,98450.19
2024-02-23T19:22:40.885Z,98457.75
2024-02-23T19:25:11.337Z,98455.03
2024-02-23T19:27:40.167Z,98458.56
2024-02-23T19:30:12.281Z,98467.94
2024-02-23T19:32:40.264Z,98466.78
2024-02-23T19:35:08.598Z,98468.59
2024-02-23T19:37:38.707Z,98463.84
2024-02-23T19:40:08.794Z,98467.03
2024-02-23T19:42:36.539Z,98471.94
2024-02-23T19:45:05.821Z,98474.41
2024-02-23T19:47:34.084Z,98474.00
2024-02-23T19:50:04.771Z,98469.91
2024-02-23T19:52:32.655Z,98473.72
2024-02-23T19:55:01.671Z,98477.78
2024-02-23T19:57:29.471Z,98484.59
2024-02-23T19:59:58.435Z,98483.03
2024-02-23T20:02:26.464Z,98478.06
2024-02-23T20:04:56.216Z,98478.91
2024-02-23T20:07:24.196Z,98475.00
2024-02-23T20:09:51.999Z,98485.69
2024-02-23T20:12:21.432Z,98491.50
2024-02-23T20:14:49.505Z,98477.59
2024-02-23T20:17:17.788Z,98480.97
2024-02-23T20:19:45.696Z,98486.72
2024-02-23T20:22:15.103Z,98479.69
2024-02-23T20:24:43.604Z,98482.50
2024-02-23T20:27:11.387Z,98476.41
2024-02-23T20:29:40.453Z,98479.56
2024-02-23T20:32:16.106Z,98487.66
2024-02-23T20:34:50.826Z,98488.06
2024-02-23T20:37:18.624Z,98487.72
2024-02-23T20:39:46.601Z,98491.66
2024-02-23T20:42:14.551Z,98489.38
2024-02-23T20:44:43.649Z,98494.84
2024-02-23T20:47:11.459Z,98491.28
2024-02-23T20:49:39.656Z,98494.47
2024-02-23T20:52:07.829Z,98498.59
2024-02-23T20:54:35.499Z,98485.72
2024-02-23T20:57:04.286Z,98491.47
2024-02-23T20:59:31.984Z,98500.75
2024-02-23T21:02:01.027Z,98491.31
2024-02-23T21:04:28.807Z,98494.69
2024-02-23T21:06:56.584Z,98498.00
2024-02-23T21:09:24.238Z,98493.91
2024-02-23T21:11:51.969Z,98493.63
2024-02-23T21:14:20.007Z,98496.44
2024-02-23T21:16:47.817Z,98499.06
2024-02-23T21:19:16.958Z,98504.53
2024-02-23T21:21:44.946Z,98504.41
2024-02-23T21:24:12.591Z,98501.66
2024-02-23T21:26:40.906Z,98495.34
2024-02-23T21:29:08.745Z,98501.53
2024-02-23T21:31:36.449Z,98499.44
2024-02-23T21:34:04.461Z,98500.81
2024-02-23T21:36:33.549Z,98500.47
2024-02-23T21:39:01.222Z,98500.47
2024-02-23T21:41:28.946Z,98504.22
2024-02-23T21:43:56.610Z,98499.88
2024-02-23T21:46:24.301Z,98497.47
2024-02-23T21:48:52.114Z,98500.72
2024-02-23T21:51:19.820Z,98509.00
2024-02-23T21:53:48.893Z,98508.53
2024-02-23T21:56:16.706Z,98502.59
2024-02-23T21:58:44.363Z,98509.63
2024-02-23T22:01:12.054Z,98501.88
2024-02-23T22:03:39.755Z,98515.34
2024-02-23T22:06:08.115Z,98517.31
2024-02-23T22:08:35.888Z,98512.63
2024-02-23T22:11:05.351Z,98511.25
2024-02-23T22:13:33.038Z,98501.41
2024-02-23T22:16:00.678Z,98507.34
2024-02-23T22:18:29.595Z,98511.13
2024-02-23T22:20:57.314Z,98514.38
2024-02-23T22:23:25.110Z,98508.66
2024-02-23T22:25:53.568Z,98518.56
2024-02-23T22:28:22.579Z,98517.88
2024-02-23T22:30:50.394Z,98506.66
2024-02-23T22:33:18.272Z,98521.81
2024-02-23T22:35:46.113Z,98504.81
2024-02-23T22:38:13.845Z,98500.28
2024-02-23T22:40:41.530Z,98507.19
2024-02-23T22:43:09.359Z,98517.81
2024-02-23T22:45:38.396Z,98507.84
2024-02-23T22:48:07.950Z,98509.81
2024-02-23T22:50:35.854Z,98507.28
2024-02-23T22:53:03.689Z,98513.84
2024-02-23T22:55:31.428Z,98505.38
2024-02-23T22:57:59.214Z,98503.88
2024-02-23T23:00:26.899Z,98509.22
2024-02-23T23:02:56.051Z,98508.63
2024-02-23T23:05:26.321Z,98507.47
2024-02-23T23:07:54.179Z,98506.88
2024-02-23T23:10:22.349Z,98505.66
2024-02-23T23:12:50.001Z,98501.66
2024-02-23T23:15:17.864Z,98503.34
2024-02-23T23:17:45.623Z,98515.63
2024-02-23T23:20:15.025Z,98511.50
2024-02-23T23:22:42.721Z,98522.44
2024-02-23T23:25:10.474Z,98520.41
2024-02-23T23:27:38.200Z,98523.22
2024-02-23T23:30:06.696Z,98519.28
2024-02-23T23:32:34.457Z,98525.75
2024-02-23T23:35:02.335Z,98532.16
2024-02-23T23:37:31.367Z,98525.22
2024-02-23T23:39:59.107Z,98521.09
2024-02-23T23:42:26.832Z,98535.06
2024-02-23T23:44:55.148Z,98531.41
2024-02-23T23:47:22.951Z,98533.72
2024-02-23T23:49:50.699Z,98526.09
2024-02-23T23:52:18.696Z,98531.81
2024-02-23T23:54:47.808Z,98524.44
2024-02-23T23:57:15.535Z,98534.16
2024-02-23T23:59:44.064Z,98531.09
